sensor_id;sensor_type;location;lat;lon;timestamp;P1;durP1;ratioP1;P2;durP2;ratioP2
54452;SDS011;40363;52.270;10.546;2022-11-20T00:00:15;15.70;;;8.73;;
54452;SDS011;40363;52.270;10.546;2022-11-20T00:02:43;17.42;;;8.82;;
54452;SDS011;40363;52.270;10.546;2022-11-20T00:05:10;13.90;;;7.78;;
54452;SDS011;40363;52.270;10.546;2022-11-20T00:07:37;17.85;;;9.02;;
54452;SDS011;40363;52.270;10.546;2022-11-20T00:10:04;16.92;;;8.57;;
54452;SDS011;40363;52.270;10.546;2022-11-20T00:12:31;20.63;;;8.05;;
54452;SDS011;40363;52.270;10.546;2022-11-20T00:14:57;12.02;;;6.90;;
54452;SDS011;40363;52.270;10.546;2022-11-20T00:17:24;15.90;;;7.22;;
54452;SDS011;40363;52.270;10.546;2022-11-20T00:19:52;14.85;;;7.97;;
54452;SDS011;40363;52.270;10.546;2022-11-20T00:22:19;16.88;;;8.05;;
54452;SDS011;40363;52.270;10.546;2022-11-20T00:24:46;13.63;;;7.30;;
54452;SDS011;40363;52.270;10.546;2022-11-20T00:27:12;13.70;;;8.27;;
54452;SDS011;40363;52.270;10.546;2022-11-20T00:29:39;15.00;;;7.95;;
54452;SDS011;40363;52.270;10.546;2022-11-20T00:32:05;15.70;;;8.05;;
54452;SDS011;40363;52.270;10.546;2022-11-20T00:34:32;18.35;;;7.10;;
54452;SDS011;40363;52.270;10.546;2022-11-20T00:37:00;12.85;;;7.90;;
54452;SDS011;40363;52.270;10.546;2022-11-20T00:39:26;12.50;;;7.10;;
54452;SDS011;40363;52.270;10.546;2022-11-20T00:41:53;12.25;;;7.13;;
54452;SDS011;40363;52.270;10.546;2022-11-20T00:44:20;15.75;;;7.70;;
54452;SDS011;40363;52.270;10.546;2022-11-20T00:46:46;15.98;;;7.63;;
54452;SDS011;40363;52.270;10.546;2022-11-20T00:49:13;15.75;;;8.38;;
54452;SDS011;40363;52.270;10.546;2022-11-20T00:51:39;15.77;;;7.82;;
54452;SDS011;40363;52.270;10.546;2022-11-20T00:54:07;11.98;;;6.95;;
54452;SDS011;40363;52.270;10.546;2022-11-20T00:56:34;13.80;;;7.30;;
54452;SDS011;40363;52.270;10.546;2022-11-20T00:59:01;13.30;;;8.10;;
54452;SDS011;40363;52.270;10.546;2022-11-20T01:01:27;15.82;;;7.13;;
54452;SDS011;40363;52.270;10.546;2022-11-20T01:03:55;12.90;;;6.80;;
54452;SDS011;40363;52.270;10.546;2022-11-20T01:06:23;13.77;;;6.22;;
54452;SDS011;40363;52.270;10.546;2022-11-20T01:08:52;11.80;;;7.20;;
54452;SDS011;40363;52.270;10.546;2022-11-20T01:11:22;16.95;;;7.75;;
54452;SDS011;40363;52.270;10.546;2022-11-20T01:13:51;11.90;;;7.13;;
54452;SDS011;40363;52.270;10.546;2022-11-20T01:16:19;12.80;;;6.53;;
54452;SDS011;40363;52.270;10.546;2022-11-20T01:18:48;13.98;;;6.35;;
54452;SDS011;40363;52.270;10.546;2022-11-20T01:21:17;16.77;;;7.88;;
54452;SDS011;40363;52.270;10.546;2022-11-20T01:23:45;11.65;;;5.88;;
54452;SDS011;40363;52.270;10.546;2022-11-20T01:26:12;14.02;;;6.57;;
54452;SDS011;40363;52.270;10.546;2022-11-20T01:28:43;13.20;;;6.93;;
54452;SDS011;40363;52.270;10.546;2022-11-20T01:31:11;13.70;;;6.82;;
54452;SDS011;40363;52.270;10.546;2022-11-20T01:33:39;16.35;;;7.45;;
54452;SDS011;40363;52.270;10.546;2022-11-20T01:36:06;14.43;;;6.63;;
54452;SDS011;40363;52.270;10.546;2022-11-20T01:38:34;11.38;;;5.82;;
54452;SDS011;40363;52.270;10.546;2022-11-20T01:41:00;16.02;;;8.82;;
54452;SDS011;40363;52.270;10.546;2022-11-20T01:43:27;11.77;;;6.47;;
54452;SDS011;40363;52.270;10.546;2022-11-20T01:46:00;12.75;;;6.68;;
54452;SDS011;40363;52.270;10.546;2022-11-20T01:48:36;15.20;;;7.32;;
54452;SDS011;40363;52.270;10.546;2022-11-20T01:51:07;13.45;;;7.50;;
54452;SDS011;40363;52.270;10.546;2022-11-20T01:53:41;14.52;;;7.55;;
54452;SDS011;40363;52.270;10.546;2022-11-20T01:56:09;15.07;;;7.53;;
54452;SDS011;40363;52.270;10.546;2022-11-20T01:58:38;13.50;;;7.18;;
54452;SDS011;40363;52.270;10.546;2022-11-20T02:01:10;14.52;;;7.40;;
54452;SDS011;40363;52.270;10.546;2022-11-20T02:03:37;14.82;;;7.18;;
54452;SDS011;40363;52.270;10.546;2022-11-20T02:06:04;12.27;;;6.82;;
54452;SDS011;40363;52.270;10.546;2022-11-20T02:08:36;14.77;;;8.07;;
54452;SDS011;40363;52.270;10.546;2022-11-20T02:11:04;13.98;;;8.02;;
54452;SDS011;40363;52.270;10.546;2022-11-20T02:13:30;13.20;;;8.13;;
54452;SDS011;40363;52.270;10.546;2022-11-20T02:16:13;16.50;;;7.95;;
54452;SDS011;40363;52.270;10.546;2022-11-20T02:18:42;15.35;;;7.60;;
54452;SDS011;40363;52.270;10.546;2022-11-20T02:21:13;15.13;;;7.78;;
54452;SDS011;40363;52.270;10.546;2022-11-20T02:24:03;11.93;;;7.22;;
54452;SDS011;40363;52.270;10.546;2022-11-20T02:26:33;13.63;;;7.40;;
54452;SDS011;40363;52.270;10.546;2022-11-20T02:29:05;14.70;;;7.20;;
54452;SDS011;40363;52.270;10.546;2022-11-20T02:31:40;16.00;;;7.85;;
54452;SDS011;40363;52.270;10.546;2022-11-20T02:34:08;17.67;;;8.05;;
54452;SDS011;40363;52.270;10.546;2022-11-20T02:36:35;14.00;;;7.90;;
54452;SDS011;40363;52.270;10.546;2022-11-20T02:39:06;17.83;;;8.60;;
54452;SDS011;40363;52.270;10.546;2022-11-20T02:41:37;17.30;;;7.85;;
54452;SDS011;40363;52.270;10.546;2022-11-20T02:44:04;13.30;;;6.50;;
54452;SDS011;40363;52.270;10.546;2022-11-20T02:46:31;14.00;;;7.63;;
54452;SDS011;40363;52.270;10.546;2022-11-20T02:48:58;14.13;;;8.18;;
54452;SDS011;40363;52.270;10.546;2022-11-20T02:51:24;13.45;;;7.35;;
54452;SDS011;40363;52.270;10.546;2022-11-20T02:53:51;14.07;;;7.55;;
54452;SDS011;40363;52.270;10.546;2022-11-20T02:56:19;15.00;;;7.60;;
54452;SDS011;40363;52.270;10.546;2022-11-20T02:58:46;12.05;;;7.15;;
54452;SDS011;40363;52.270;10.546;2022-11-20T03:01:13;11.90;;;7.15;;
54452;SDS011;40363;52.270;10.546;2022-11-20T03:03:39;14.38;;;7.90;;
54452;SDS011;40363;52.270;10.546;2022-11-20T03:06:06;13.05;;;6.78;;
54452;SDS011;40363;52.270;10.546;2022-11-20T03:08:33;15.73;;;8.23;;
54452;SDS011;40363;52.270;10.546;2022-11-20T03:11:04;16.60;;;7.50;;
54452;SDS011;40363;52.270;10.546;2022-11-20T03:13:33;15.60;;;8.23;;
54452;SDS011;40363;52.270;10.546;2022-11-20T03:16:08;14.32;;;8.10;;
54452;SDS011;40363;52.270;10.546;2022-11-20T03:18:36;17.75;;;8.27;;
54452;SDS011;40363;52.270;10.546;2022-11-20T03:21:03;15.02;;;8.27;;
54452;SDS011;40363;52.270;10.546;2022-11-20T03:23:30;14.50;;;7.53;;
54452;SDS011;40363;52.270;10.546;2022-11-20T03:26:07;14.63;;;7.20;;
54452;SDS011;40363;52.270;10.546;2022-11-20T03:28:37;10.70;;;6.75;;
54452;SDS011;40363;52.270;10.546;2022-11-20T03:31:07;12.10;;;6.63;;
54452;SDS011;40363;52.270;10.546;2022-11-20T03:33:35;15.07;;;7.13;;
54452;SDS011;40363;52.270;10.546;2022-11-20T03:36:02;12.85;;;6.70;;
54452;SDS011;40363;52.270;10.546;2022-11-20T03:38:29;13.07;;;6.32;;
54452;SDS011;40363;52.270;10.546;2022-11-20T03:41:00;12.48;;;7.10;;
54452;SDS011;40363;52.270;10.546;2022-11-20T03:43:28;11.40;;;6.95;;
54452;SDS011;40363;52.270;10.546;2022-11-20T03:45:56;11.02;;;6.40;;
54452;SDS011;40363;52.270;10.546;2022-11-20T03:48:22;12.75;;;6.18;;
54452;SDS011;40363;52.270;10.546;2022-11-20T03:50:49;12.43;;;6.80;;
54452;SDS011;40363;52.270;10.546;2022-11-20T03:53:16;14.32;;;7.22;;
54452;SDS011;40363;52.270;10.546;2022-11-20T03:55:43;14.50;;;6.68;;
54452;SDS011;40363;52.270;10.546;2022-11-20T03:58:09;17.08;;;7.03;;
54452;SDS011;40363;52.270;10.546;2022-11-20T04:00:36;14.95;;;6.60;;
54452;SDS011;40363;52.270;10.546;2022-11-20T04:03:04;11.25;;;6.40;;
54452;SDS011;40363;52.270;10.546;2022-11-20T04:05:32;13.30;;;7.03;;
54452;SDS011;40363;52.270;10.546;2022-11-20T04:07:59;11.00;;;6.45;;
54452;SDS011;40363;52.270;10.546;2022-11-20T04:10:26;13.90;;;6.10;;
54452;SDS011;40363;52.270;10.546;2022-11-20T04:12:52;14.57;;;7.13;;
54452;SDS011;40363;52.270;10.546;2022-11-20T04:15:19;13.05;;;6.32;;
54452;SDS011;40363;52.270;10.546;2022-11-20T04:17:45;13.40;;;7.25;;
54452;SDS011;40363;52.270;10.546;2022-11-20T04:20:14;11.70;;;7.03;;
54452;SDS011;40363;52.270;10.546;2022-11-20T04:22:40;13.25;;;7.15;;
54452;SDS011;40363;52.270;10.546;2022-11-20T04:25:07;16.65;;;7.28;;
54452;SDS011;40363;52.270;10.546;2022-11-20T04:27:34;15.68;;;7.85;;
54452;SDS011;40363;52.270;10.546;2022-11-20T04:30:01;10.25;;;6.60;;
54452;SDS011;40363;52.270;10.546;2022-11-20T04:32:28;13.75;;;6.85;;
54452;SDS011;40363;52.270;10.546;2022-11-20T04:34:54;12.05;;;6.68;;
54452;SDS011;40363;52.270;10.546;2022-11-20T04:37:22;13.52;;;6.78;;
54452;SDS011;40363;52.270;10.546;2022-11-20T04:39:49;12.57;;;6.57;;
54452;SDS011;40363;52.270;10.546;2022-11-20T04:42:15;11.57;;;5.78;;
54452;SDS011;40363;52.270;10.546;2022-11-20T04:44:54;12.85;;;6.93;;
54452;SDS011;40363;52.270;10.546;2022-11-20T04:47:21;13.45;;;6.85;;
54452;SDS011;40363;52.270;10.546;2022-11-20T04:49:48;19.30;;;7.55;;
54452;SDS011;40363;52.270;10.546;2022-11-20T04:52:14;12.48;;;7.13;;
54452;SDS011;40363;52.270;10.546;2022-11-20T04:54:42;15.63;;;7.53;;
54452;SDS011;40363;52.270;10.546;2022-11-20T04:57:09;14.30;;;7.75;;
54452;SDS011;40363;52.270;10.546;2022-11-20T04:59:35;13.25;;;7.28;;
54452;SDS011;40363;52.270;10.546;2022-11-20T05:02:02;15.48;;;7.60;;
54452;SDS011;40363;52.270;10.546;2022-11-20T05:04:29;15.27;;;7.45;;
54452;SDS011;40363;52.270;10.546;2022-11-20T05:06:55;15.35;;;6.50;;
54452;SDS011;40363;52.270;10.546;2022-11-20T05:09:22;16.38;;;7.90;;
54452;SDS011;40363;52.270;10.546;2022-11-20T05:11:50;16.73;;;7.03;;
54452;SDS011;40363;52.270;10.546;2022-11-20T05:14:16;15.23;;;7.65;;
54452;SDS011;40363;52.270;10.546;2022-11-20T05:16:43;13.98;;;7.18;;
54452;SDS011;40363;52.270;10.546;2022-11-20T05:19:09;14.80;;;7.88;;
54452;SDS011;40363;52.270;10.546;2022-11-20T05:21:36;12.43;;;7.03;;
54452;SDS011;40363;52.270;10.546;2022-11-20T05:24:03;14.18;;;7.18;;
54452;SDS011;40363;52.270;10.546;2022-11-20T05:26:31;14.35;;;7.80;;
54452;SDS011;40363;52.270;10.546;2022-11-20T05:28:59;16.33;;;6.78;;
54452;SDS011;40363;52.270;10.546;2022-11-20T05:31:25;14.43;;;7.22;;
54452;SDS011;40363;52.270;10.546;2022-11-20T05:33:52;14.30;;;6.90;;
54452;SDS011;40363;52.270;10.546;2022-11-20T05:36:18;14.00;;;7.00;;
54452;SDS011;40363;52.270;10.546;2022-11-20T05:38:45;12.48;;;7.22;;
54452;SDS011;40363;52.270;10.546;2022-11-20T05:41:12;13.68;;;7.43;;
54452;SDS011;40363;52.270;10.546;2022-11-20T05:43:40;15.00;;;8.02;;
54452;SDS011;40363;52.270;10.546;2022-11-20T05:46:10;14.77;;;7.22;;
54452;SDS011;40363;52.270;10.546;2022-11-20T05:48:39;14.88;;;6.53;;
54452;SDS011;40363;52.270;10.546;2022-11-20T05:51:08;15.50;;;7.22;;
54452;SDS011;40363;52.270;10.546;2022-11-20T05:53:36;13.65;;;7.68;;
54452;SDS011;40363;52.270;10.546;2022-11-20T05:56:04;12.07;;;7.32;;
54452;SDS011;40363;52.270;10.546;2022-11-20T05:58:32;14.48;;;7.57;;
54452;SDS011;40363;52.270;10.546;2022-11-20T06:01:03;14.52;;;6.90;;
54452;SDS011;40363;52.270;10.546;2022-11-20T06:03:32;12.30;;;6.80;;
54452;SDS011;40363;52.270;10.546;2022-11-20T06:06:00;12.77;;;7.53;;
54452;SDS011;40363;52.270;10.546;2022-11-20T06:08:27;12.98;;;6.63;;
54452;SDS011;40363;52.270;10.546;2022-11-20T06:10:54;14.10;;;6.75;;
54452;SDS011;40363;52.270;10.546;2022-11-20T06:13:21;13.30;;;6.10;;
54452;SDS011;40363;52.270;10.546;2022-11-20T06:15:48;15.05;;;7.35;;
54452;SDS011;40363;52.270;10.546;2022-11-20T06:18:15;14.20;;;6.97;;
54452;SDS011;40363;52.270;10.546;2022-11-20T06:20:43;13.70;;;7.00;;
54452;SDS011;40363;52.270;10.546;2022-11-20T06:23:10;11.40;;;6.57;;
54452;SDS011;40363;52.270;10.546;2022-11-20T06:25:38;13.07;;;6.35;;
54452;SDS011;40363;52.270;10.546;2022-11-20T06:28:05;12.95;;;7.15;;
54452;SDS011;40363;52.270;10.546;2022-11-20T06:30:31;13.18;;;6.88;;
54452;SDS011;40363;52.270;10.546;2022-11-20T06:32:58;12.73;;;6.78;;
54452;SDS011;40363;52.270;10.546;2022-11-20T06:35:25;12.52;;;6.72;;
54452;SDS011;40363;52.270;10.546;2022-11-20T06:37:53;12.88;;;6.93;;
54452;SDS011;40363;52.270;10.546;2022-11-20T06:40:19;13.98;;;6.63;;
54452;SDS011;40363;52.270;10.546;2022-11-20T06:42:46;14.70;;;6.57;;
54452;SDS011;40363;52.270;10.546;2022-11-20T06:45:13;11.20;;;6.13;;
54452;SDS011;40363;52.270;10.546;2022-11-20T06:47:39;12.93;;;7.13;;
54452;SDS011;40363;52.270;10.546;2022-11-20T06:50:06;11.00;;;6.40;;
54452;SDS011;40363;52.270;10.546;2022-11-20T06:52:33;11.82;;;6.47;;
54452;SDS011;40363;52.270;10.546;2022-11-20T06:55:01;13.63;;;6.57;;
54452;SDS011;40363;52.270;10.546;2022-11-20T06:57:28;11.90;;;6.32;;
54452;SDS011;40363;52.270;10.546;2022-11-20T06:59:55;12.10;;;7.18;;
54452;SDS011;40363;52.270;10.546;2022-11-20T07:02:21;13.90;;;7.25;;
54452;SDS011;40363;52.270;10.546;2022-11-20T07:04:48;14.43;;;7.03;;
54452;SDS011;40363;52.270;10.546;2022-11-20T07:07:15;12.10;;;6.38;;
54452;SDS011;40363;52.270;10.546;2022-11-20T07:09:44;13.20;;;6.13;;
54452;SDS011;40363;52.270;10.546;2022-11-20T07:12:12;12.65;;;6.53;;
54452;SDS011;40363;52.270;10.546;2022-11-20T07:14:39;12.77;;;6.82;;
54452;SDS011;40363;52.270;10.546;2022-11-20T07:17:05;12.93;;;6.85;;
54452;SDS011;40363;52.270;10.546;2022-11-20T07:19:32;13.38;;;7.05;;
54452;SDS011;40363;52.270;10.546;2022-11-20T07:21:59;13.73;;;6.80;;
54452;SDS011;40363;52.270;10.546;2022-11-20T07:24:29;16.55;;;7.53;;
54452;SDS011;40363;52.270;10.546;2022-11-20T07:26:55;14.07;;;7.28;;
54452;SDS011;40363;52.270;10.546;2022-11-20T07:29:23;13.93;;;7.82;;
54452;SDS011;40363;52.270;10.546;2022-11-20T07:31:50;11.43;;;7.22;;
54452;SDS011;40363;52.270;10.546;2022-11-20T07:34:17;13.60;;;7.57;;
54452;SDS011;40363;52.270;10.546;2022-11-20T07:36:45;13.68;;;6.72;;
54452;SDS011;40363;52.270;10.546;2022-11-20T07:39:11;11.18;;;6.95;;
54452;SDS011;40363;52.270;10.546;2022-11-20T07:41:38;10.18;;;6.55;;
54452;SDS011;40363;52.270;10.546;2022-11-20T07:44:04;12.38;;;6.07;;
54452;SDS011;40363;52.270;10.546;2022-11-20T07:46:32;13.88;;;6.53;;
54452;SDS011;40363;52.270;10.546;2022-11-20T07:48:59;11.65;;;7.10;;
54452;SDS011;40363;52.270;10.546;2022-11-20T07:51:26;14.23;;;7.18;;
54452;SDS011;40363;52.270;10.546;2022-11-20T07:53:54;14.65;;;6.97;;
54452;SDS011;40363;52.270;10.546;2022-11-20T07:56:21;16.60;;;7.43;;
54452;SDS011;40363;52.270;10.546;2022-11-20T07:58:47;12.93;;;7.28;;
54452;SDS011;40363;52.270;10.546;2022-11-20T08:01:14;12.75;;;5.60;;
54452;SDS011;40363;52.270;10.546;2022-11-20T08:03:42;12.30;;;6.90;;
54452;SDS011;40363;52.270;10.546;2022-11-20T08:06:08;16.45;;;6.80;;
54452;SDS011;40363;52.270;10.546;2022-11-20T08:08:35;13.48;;;6.18;;
54452;SDS011;40363;52.270;10.546;2022-11-20T08:11:03;16.23;;;6.85;;
54452;SDS011;40363;52.270;10.546;2022-11-20T08:13:47;16.30;;;7.90;;
54452;SDS011;40363;52.270;10.546;2022-11-20T08:16:31;14.65;;;6.45;;
54452;SDS011;40363;52.270;10.546;2022-11-20T08:18:59;11.75;;;6.65;;
54452;SDS011;40363;52.270;10.546;2022-11-20T08:21:25;11.93;;;6.20;;
54452;SDS011;40363;52.270;10.546;2022-11-20T08:23:52;12.07;;;6.65;;
54452;SDS011;40363;52.270;10.546;2022-11-20T08:26:20;13.45;;;6.40;;
54452;SDS011;40363;52.270;10.546;2022-11-20T08:28:47;14.35;;;7.50;;
54452;SDS011;40363;52.270;10.546;2022-11-20T08:31:14;13.18;;;6.57;;
54452;SDS011;40363;52.270;10.546;2022-11-20T08:33:40;14.98;;;7.28;;
54452;SDS011;40363;52.270;10.546;2022-11-20T08:36:08;13.48;;;6.50;;
54452;SDS011;40363;52.270;10.546;2022-11-20T08:38:35;12.23;;;6.82;;
54452;SDS011;40363;52.270;10.546;2022-11-20T08:41:03;13.90;;;6.82;;
54452;SDS011;40363;52.270;10.546;2022-11-20T08:43:48;13.52;;;6.70;;
54452;SDS011;40363;52.270;10.546;2022-11-20T08:46:15;15.10;;;6.40;;
54452;SDS011;40363;52.270;10.546;2022-11-20T08:48:41;13.25;;;7.25;;
54452;SDS011;40363;52.270;10.546;2022-11-20T08:51:10;11.10;;;6.95;;
54452;SDS011;40363;52.270;10.546;2022-11-20T08:53:38;13.38;;;6.70;;
54452;SDS011;40363;52.270;10.546;2022-11-20T08:56:05;13.18;;;6.15;;
54452;SDS011;40363;52.270;10.546;2022-11-20T08:58:32;12.68;;;6.65;;
54452;SDS011;40363;52.270;10.546;2022-11-20T09:00:59;12.30;;;6.47;;
54452;SDS011;40363;52.270;10.546;2022-11-20T09:03:25;15.02;;;6.97;;
54452;SDS011;40363;52.270;10.546;2022-11-20T09:05:56;14.88;;;6.68;;
54452;SDS011;40363;52.270;10.546;2022-11-20T09:08:26;11.07;;;6.32;;
54452;SDS011;40363;52.270;10.546;2022-11-20T09:10:52;11.25;;;6.78;;
54452;SDS011;40363;52.270;10.546;2022-11-20T09:13:20;13.13;;;6.72;;
54452;SDS011;40363;52.270;10.546;2022-11-20T09:15:47;13.38;;;6.97;;
54452;SDS011;40363;52.270;10.546;2022-11-20T09:18:18;12.07;;;6.60;;
54452;SDS011;40363;52.270;10.546;2022-11-20T09:20:45;14.52;;;7.07;;
54452;SDS011;40363;52.270;10.546;2022-11-20T09:23:11;15.15;;;7.07;;
54452;SDS011;40363;52.270;10.546;2022-11-20T09:25:39;13.43;;;7.47;;
54452;SDS011;40363;52.270;10.546;2022-11-20T09:28:06;19.88;;;7.68;;
54452;SDS011;40363;52.270;10.546;2022-11-20T09:30:33;14.80;;;6.93;;
54452;SDS011;40363;52.270;10.546;2022-11-20T09:32:59;11.60;;;6.03;;
54452;SDS011;40363;52.270;10.546;2022-11-20T09:35:26;12.10;;;7.22;;
54452;SDS011;40363;52.270;10.546;2022-11-20T09:37:52;12.38;;;7.60;;
54452;SDS011;40363;52.270;10.546;2022-11-20T09:40:20;14.52;;;7.22;;
54452;SDS011;40363;52.270;10.546;2022-11-20T09:42:51;11.73;;;6.85;;
54452;SDS011;40363;52.270;10.546;2022-11-20T09:45:25;12.50;;;6.63;;
54452;SDS011;40363;52.270;10.546;2022-11-20T09:48:17;10.50;;;6.57;;
54452;SDS011;40363;52.270;10.546;2022-11-20T09:50:52;12.65;;;6.07;;
54452;SDS011;40363;52.270;10.546;2022-11-20T09:53:30;16.42;;;7.63;;
54452;SDS011;40363;52.270;10.546;2022-11-20T09:56:01;11.40;;;6.72;;
54452;SDS011;40363;52.270;10.546;2022-11-20T09:58:32;13.02;;;6.13;;
54452;SDS011;40363;52.270;10.546;2022-11-20T10:01:03;11.23;;;6.53;;
54452;SDS011;40363;52.270;10.546;2022-11-20T10:03:37;8.45;;;5.25;;
54452;SDS011;40363;52.270;10.546;2022-11-20T10:06:12;12.45;;;5.97;;
54452;SDS011;40363;52.270;10.546;2022-11-20T10:08:45;14.48;;;6.90;;
54452;SDS011;40363;52.270;10.546;2022-11-20T10:11:18;9.88;;;6.03;;
54452;SDS011;40363;52.270;10.546;2022-11-20T10:13:55;9.90;;;5.47;;
54452;SDS011;40363;52.270;10.546;2022-11-20T10:16:33;11.50;;;5.63;;
54452;SDS011;40363;52.270;10.546;2022-11-20T10:19:10;13.98;;;5.95;;
54452;SDS011;40363;52.270;10.546;2022-11-20T10:21:53;8.40;;;5.28;;
54452;SDS011;40363;52.270;10.546;2022-11-20T10:24:36;10.35;;;6.38;;
54452;SDS011;40363;52.270;10.546;2022-11-20T10:27:14;8.00;;;5.22;;
54452;SDS011;40363;52.270;10.546;2022-11-20T10:29:59;9.30;;;5.28;;
54452;SDS011;40363;52.270;10.546;2022-11-20T10:32:31;10.98;;;5.30;;
54452;SDS011;40363;52.270;10.546;2022-11-20T10:35:05;10.27;;;5.03;;
54452;SDS011;40363;52.270;10.546;2022-11-20T10:37:43;10.88;;;6.10;;
54452;SDS011;40363;52.270;10.546;2022-11-20T10:40:18;7.72;;;5.00;;
54452;SDS011;40363;52.270;10.546;2022-11-20T10:42:50;10.77;;;5.90;;
54452;SDS011;40363;52.270;10.546;2022-11-20T10:45:27;12.27;;;6.10;;
54452;SDS011;40363;52.270;10.546;2022-11-20T10:48:04;9.38;;;6.13;;
54452;SDS011;40363;52.270;10.546;2022-11-20T10:50:40;10.80;;;6.20;;
54452;SDS011;40363;52.270;10.546;2022-11-20T10:55:43;10.35;;;5.05;;
54452;SDS011;40363;52.270;10.546;2022-11-20T10:58:13;12.40;;;6.57;;
54452;SDS011;40363;52.270;10.546;2022-11-20T11:00:48;10.90;;;7.05;;
54452;SDS011;40363;52.270;10.546;2022-11-20T11:03:20;12.05;;;5.85;;
54452;SDS011;40363;52.270;10.546;2022-11-20T11:05:50;16.05;;;6.88;;
54452;SDS011;40363;52.270;10.546;2022-11-20T11:08:24;11.23;;;6.30;;
54452;SDS011;40363;52.270;10.546;2022-11-20T11:10:54;14.23;;;6.05;;
54452;SDS011;40363;52.270;10.546;2022-11-20T11:13:27;13.50;;;6.40;;
54452;SDS011;40363;52.270;10.546;2022-11-20T11:15:56;11.05;;;5.75;;
54452;SDS011;40363;52.270;10.546;2022-11-20T11:18:24;11.38;;;5.97;;
54452;SDS011;40363;52.270;10.546;2022-11-20T11:20:52;13.88;;;7.15;;
54452;SDS011;40363;52.270;10.546;2022-11-20T11:23:31;13.93;;;6.65;;
54452;SDS011;40363;52.270;10.546;2022-11-20T11:26:00;13.25;;;6.47;;
54452;SDS011;40363;52.270;10.546;2022-11-20T11:28:28;12.43;;;7.40;;
54452;SDS011;40363;52.270;10.546;2022-11-20T11:30:56;12.88;;;6.88;;
54452;SDS011;40363;52.270;10.546;2022-11-20T11:33:24;13.13;;;6.75;;
54452;SDS011;40363;52.270;10.546;2022-11-20T11:35:52;13.23;;;7.05;;
54452;SDS011;40363;52.270;10.546;2022-11-20T11:38:22;12.68;;;6.95;;
54452;SDS011;40363;52.270;10.546;2022-11-20T11:40:57;15.75;;;7.20;;
54452;SDS011;40363;52.270;10.546;2022-11-20T11:43:24;16.65;;;8.10;;
54452;SDS011;40363;52.270;10.546;2022-11-20T11:46:21;15.52;;;7.00;;
54452;SDS011;40363;52.270;10.546;2022-11-20T11:48:54;13.80;;;7.05;;
54452;SDS011;40363;52.270;10.546;2022-11-20T11:51:23;12.75;;;6.80;;
54452;SDS011;40363;52.270;10.546;2022-11-20T11:53:54;14.55;;;6.63;;
54452;SDS011;40363;52.270;10.546;2022-11-20T11:56:22;13.00;;;6.35;;
54452;SDS011;40363;52.270;10.546;2022-11-20T11:58:49;14.35;;;6.03;;
54452;SDS011;40363;52.270;10.546;2022-11-20T12:01:24;10.52;;;5.63;;
54452;SDS011;40363;52.270;10.546;2022-11-20T12:03:59;11.30;;;6.05;;
54452;SDS011;40363;52.270;10.546;2022-11-20T12:06:30;10.68;;;5.55;;
54452;SDS011;40363;52.270;10.546;2022-11-20T12:08:59;11.02;;;5.63;;
54452;SDS011;40363;52.270;10.546;2022-11-20T12:11:30;9.52;;;5.25;;
54452;SDS011;40363;52.270;10.546;2022-11-20T12:14:02;10.25;;;5.68;;
54452;SDS011;40363;52.270;10.546;2022-11-20T12:16:40;9.18;;;5.78;;
54452;SDS011;40363;52.270;10.546;2022-11-20T12:19:08;13.23;;;6.20;;
54452;SDS011;40363;52.270;10.546;2022-11-20T12:21:40;12.88;;;5.63;;
54452;SDS011;40363;52.270;10.546;2022-11-20T12:27:23;14.40;;;6.25;;
54452;SDS011;40363;52.270;10.546;2022-11-20T12:30:07;5.43;;;4.20;;
54452;SDS011;40363;52.270;10.546;2022-11-20T12:35:50;9.05;;;5.45;;
54452;SDS011;40363;52.270;10.546;2022-11-20T12:38:34;9.50;;;5.30;;
54452;SDS011;40363;52.270;10.546;2022-11-20T12:41:19;7.00;;;4.47;;
54452;SDS011;40363;52.270;10.546;2022-11-20T12:44:12;12.32;;;5.55;;
54452;SDS011;40363;52.270;10.546;2022-11-20T12:47:09;10.23;;;5.43;;
54452;SDS011;40363;52.270;10.546;2022-11-20T12:49:49;8.75;;;5.25;;
54452;SDS011;40363;52.270;10.546;2022-11-20T12:52:26;14.80;;;5.22;;
54452;SDS011;40363;52.270;10.546;2022-11-20T12:55:09;11.07;;;6.07;;
54452;SDS011;40363;52.270;10.546;2022-11-20T12:57:43;12.60;;;6.07;;
54452;SDS011;40363;52.270;10.546;2022-11-20T13:00:15;11.10;;;5.65;;
54452;SDS011;40363;52.270;10.546;2022-11-20T13:02:50;12.57;;;5.68;;
54452;SDS011;40363;52.270;10.546;2022-11-20T13:05:43;13.52;;;6.05;;
54452;SDS011;40363;52.270;10.546;2022-11-20T13:08:19;11.45;;;6.35;;
54452;SDS011;40363;52.270;10.546;2022-11-20T13:10:49;8.88;;;5.55;;
54452;SDS011;40363;52.270;10.546;2022-11-20T13:13:23;11.85;;;5.55;;
54452;SDS011;40363;52.270;10.546;2022-11-20T13:15:57;11.65;;;5.45;;
54452;SDS011;40363;52.270;10.546;2022-11-20T13:18:28;13.23;;;6.18;;
54452;SDS011;40363;52.270;10.546;2022-11-20T13:21:12;8.70;;;4.57;;
54452;SDS011;40363;52.270;10.546;2022-11-20T13:23:39;9.88;;;6.13;;
54452;SDS011;40363;52.270;10.546;2022-11-20T13:26:14;9.52;;;5.15;;
54452;SDS011;40363;52.270;10.546;2022-11-20T13:28:43;9.02;;;5.60;;
54452;SDS011;40363;52.270;10.546;2022-11-20T13:31:23;8.50;;;4.95;;
54452;SDS011;40363;52.270;10.546;2022-11-20T13:33:54;9.38;;;5.57;;
54452;SDS011;40363;52.270;10.546;2022-11-20T13:36:24;10.65;;;6.38;;
54452;SDS011;40363;52.270;10.546;2022-11-20T13:38:53;9.98;;;5.90;;
54452;SDS011;40363;52.270;10.546;2022-11-20T13:41:24;9.75;;;4.90;;
54452;SDS011;40363;52.270;10.546;2022-11-20T13:46:34;9.50;;;5.82;;
54452;SDS011;40363;52.270;10.546;2022-11-20T13:49:06;12.20;;;6.38;;
54452;SDS011;40363;52.270;10.546;2022-11-20T13:51:37;10.48;;;6.25;;
54452;SDS011;40363;52.270;10.546;2022-11-20T13:54:14;12.80;;;6.25;;
54452;SDS011;40363;52.270;10.546;2022-11-20T13:57:03;12.05;;;6.10;;
54452;SDS011;40363;52.270;10.546;2022-11-20T13:59:47;9.88;;;5.90;;
54452;SDS011;40363;52.270;10.546;2022-11-20T14:02:22;13.68;;;5.97;;
54452;SDS011;40363;52.270;10.546;2022-11-20T14:04:53;11.98;;;5.38;;
54452;SDS011;40363;52.270;10.546;2022-11-20T14:07:27;13.40;;;6.55;;
54452;SDS011;40363;52.270;10.546;2022-11-20T14:10:01;11.88;;;6.38;;
54452;SDS011;40363;52.270;10.546;2022-11-20T14:12:28;11.80;;;5.43;;
54452;SDS011;40363;52.270;10.546;2022-11-20T14:14:56;10.13;;;6.05;;
54452;SDS011;40363;52.270;10.546;2022-11-20T14:17:24;11.85;;;5.43;;
54452;SDS011;40363;52.270;10.546;2022-11-20T14:19:58;10.95;;;6.20;;
54452;SDS011;40363;52.270;10.546;2022-11-20T14:22:28;12.25;;;6.07;;
54452;SDS011;40363;52.270;10.546;2022-11-20T14:25:03;8.70;;;5.35;;
54452;SDS011;40363;52.270;10.546;2022-11-20T14:27:33;10.32;;;5.15;;
54452;SDS011;40363;52.270;10.546;2022-11-20T14:30:02;10.98;;;5.35;;
54452;SDS011;40363;52.270;10.546;2022-11-20T14:32:30;13.65;;;6.18;;
54452;SDS011;40363;52.270;10.546;2022-11-20T14:34:59;9.27;;;5.20;;
54452;SDS011;40363;52.270;10.546;2022-11-20T14:40:05;13.38;;;5.07;;
54452;SDS011;40363;52.270;10.546;2022-11-20T14:42:47;11.55;;;5.70;;
54452;SDS011;40363;52.270;10.546;2022-11-20T14:45:14;11.23;;;7.00;;
54452;SDS011;40363;52.270;10.546;2022-11-20T14:47:42;10.95;;;5.65;;
54452;SDS011;40363;52.270;10.546;2022-11-20T14:50:12;10.65;;;6.05;;
54452;SDS011;40363;52.270;10.546;2022-11-20T14:52:50;13.55;;;6.68;;